sensor_id;sensor_type;location;lat;lon;timestamp;P1;durP1;ratioP1;P2;durP2;ratioP2
34302;SDS011;20785;50.020;19.916;2022-12-18T00:02:41;65.22;;;22.85;;
34302;SDS011;20785;50.020;19.916;2022-12-18T00:08:42;60.20;;;19.75;;
34302;SDS011;20785;50.020;19.916;2022-12-18T00:14:43;71.28;;;22.32;;
34302;SDS011;20785;50.020;19.916;2022-12-18T00:20:44;61.75;;;20.77;;
34302;SDS011;20785;50.020;19.916;2022-12-18T00:26:45;55.08;;;19.60;;
34302;SDS011;20785;50.020;19.916;2022-12-18T00:32:46;56.45;;;21.00;;
34302;SDS011;20785;50.020;19.916;2022-12-18T00:38:47;59.10;;;21.05;;
34302;SDS011;20785;50.020;19.916;2022-12-18T00:44:51;49.18;;;18.37;;
34302;SDS011;20785;50.020;19.916;2022-12-18T00:50:51;59.45;;;20.60;;
34302;SDS011;20785;50.020;19.916;2022-12-18T00:56:52;52.83;;;18.75;;
34302;SDS011;20785;50.020;19.916;2022-12-18T01:02:53;54.70;;;18.45;;
34302;SDS011;20785;50.020;19.916;2022-12-18T01:08:54;56.85;;;20.05;;
34302;SDS011;20785;50.020;19.916;2022-12-18T01:14:55;58.65;;;20.02;;
34302;SDS011;20785;50.020;19.916;2022-12-18T01:20:56;55.50;;;19.52;;
34302;SDS011;20785;50.020;19.916;2022-12-18T01:26:57;51.50;;;19.77;;
34302;SDS011;20785;50.020;19.916;2022-12-18T01:32:58;51.37;;;18.35;;
34302;SDS011;20785;50.020;19.916;2022-12-18T01:39:00;48.48;;;17.55;;
34302;SDS011;20785;50.020;19.916;2022-12-18T01:51:14;60.55;;;20.82;;
34302;SDS011;20785;50.020;19.916;2022-12-18T01:57:15;55.50;;;21.25;;
34302;SDS011;20785;50.020;19.916;2022-12-18T02:03:17;59.20;;;20.30;;
34302;SDS011;20785;50.020;19.916;2022-12-18T02:09:20;55.38;;;20.52;;
34302;SDS011;20785;50.020;19.916;2022-12-18T02:21:32;50.70;;;18.57;;
34302;SDS011;20785;50.020;19.916;2022-12-18T02:27:32;50.55;;;19.07;;
34302;SDS011;20785;50.020;19.916;2022-12-18T02:33:34;49.05;;;17.57;;
34302;SDS011;20785;50.020;19.916;2022-12-18T02:39:37;49.45;;;18.98;;
34302;SDS011;20785;50.020;19.916;2022-12-18T02:45:46;49.40;;;18.48;;
34302;SDS011;20785;50.020;19.916;2022-12-18T02:52:05;59.75;;;19.95;;
34302;SDS011;20785;50.020;19.916;2022-12-18T03:04:34;54.10;;;18.85;;
34302;SDS011;20785;50.020;19.916;2022-12-18T03:10:32;49.93;;;17.52;;
34302;SDS011;20785;50.020;19.916;2022-12-18T03:16:36;44.37;;;15.53;;
34302;SDS011;20785;50.020;19.916;2022-12-18T03:22:40;49.40;;;17.77;;
34302;SDS011;20785;50.020;19.916;2022-12-18T03:28:44;55.23;;;19.25;;
34302;SDS011;20785;50.020;19.916;2022-12-18T03:34:45;47.45;;;17.62;;
34302;SDS011;20785;50.020;19.916;2022-12-18T03:59:31;46.13;;;17.67;;
34302;SDS011;20785;50.020;19.916;2022-12-18T04:05:33;50.52;;;17.25;;
34302;SDS011;20785;50.020;19.916;2022-12-18T04:11:36;50.90;;;18.00;;
34302;SDS011;20785;50.020;19.916;2022-12-18T04:17:37;43.55;;;16.60;;
34302;SDS011;20785;50.020;19.916;2022-12-18T04:23:39;50.40;;;17.92;;
34302;SDS011;20785;50.020;19.916;2022-12-18T04:29:40;45.12;;;16.85;;
34302;SDS011;20785;50.020;19.916;2022-12-18T04:35:42;48.58;;;17.32;;
34302;SDS011;20785;50.020;19.916;2022-12-18T04:41:43;46.42;;;17.10;;
34302;SDS011;20785;50.020;19.916;2022-12-18T04:47:46;47.00;;;16.40;;
34302;SDS011;20785;50.020;19.916;2022-12-18T04:53:47;53.68;;;17.70;;
34302;SDS011;20785;50.020;19.916;2022-12-18T04:59:48;48.70;;;17.42;;
34302;SDS011;20785;50.020;19.916;2022-12-18T05:05:49;47.75;;;16.15;;
34302;SDS011;20785;50.020;19.916;2022-12-18T05:11:50;53.38;;;18.15;;
34302;SDS011;20785;50.020;19.916;2022-12-18T05:17:51;49.38;;;17.57;;
34302;SDS011;20785;50.020;19.916;2022-12-18T05:23:52;45.28;;;16.12;;
34302;SDS011;20785;50.020;19.916;2022-12-18T05:29:53;48.42;;;16.80;;
34302;SDS011;20785;50.020;19.916;2022-12-18T05:35:55;46.98;;;16.50;;
34302;SDS011;20785;50.020;19.916;2022-12-18T05:41:56;52.43;;;17.40;;
34302;SDS011;20785;50.020;19.916;2022-12-18T05:47:58;50.20;;;18.10;;
34302;SDS011;20785;50.020;19.916;2022-12-18T05:53:59;54.95;;;18.62;;
34302;SDS011;20785;50.020;19.916;2022-12-18T06:00:00;48.63;;;16.67;;
34302;SDS011;20785;50.020;19.916;2022-12-18T06:06:00;52.10;;;18.75;;
34302;SDS011;20785;50.020;19.916;2022-12-18T06:12:02;46.63;;;16.10;;
34302;SDS011;20785;50.020;19.916;2022-12-18T06:18:03;48.78;;;16.87;;
34302;SDS011;20785;50.020;19.916;2022-12-18T06:24:04;45.28;;;16.67;;
34302;SDS011;20785;50.020;19.916;2022-12-18T06:30:06;51.25;;;17.48;;
34302;SDS011;20785;50.020;19.916;2022-12-18T06:36:09;45.00;;;16.20;;
34302;SDS011;20785;50.020;19.916;2022-12-18T06:42:11;59.03;;;20.00;;
34302;SDS011;20785;50.020;19.916;2022-12-18T06:48:12;57.10;;;19.05;;
34302;SDS011;20785;50.020;19.916;2022-12-18T06:54:13;48.13;;;17.98;;
34302;SDS011;20785;50.020;19.916;2022-12-18T07:00:14;60.50;;;20.55;;
34302;SDS011;20785;50.020;19.916;2022-12-18T07:06:16;50.30;;;17.82;;
34302;SDS011;20785;50.020;19.916;2022-12-18T07:12:17;51.58;;;18.30;;
34302;SDS011;20785;50.020;19.916;2022-12-18T07:18:18;48.42;;;18.02;;
34302;SDS011;20785;50.020;19.916;2022-12-18T07:24:19;48.73;;;17.75;;
34302;SDS011;20785;50.020;19.916;2022-12-18T07:30:23;51.23;;;17.73;;
34302;SDS011;20785;50.020;19.916;2022-12-18T07:36:23;55.23;;;19.23;;
34302;SDS011;20785;50.020;19.916;2022-12-18T07:42:24;53.75;;;19.50;;
34302;SDS011;20785;50.020;19.916;2022-12-18T07:48:33;49.42;;;18.35;;
34302;SDS011;20785;50.020;19.916;2022-12-18T07:54:34;48.75;;;16.62;;
34302;SDS011;20785;50.020;19.916;2022-12-18T08:00:35;52.85;;;19.30;;
34302;SDS011;20785;50.020;19.916;2022-12-18T08:06:36;56.28;;;19.17;;
34302;SDS011;20785;50.020;19.916;2022-12-18T08:12:37;46.92;;;18.40;;
34302;SDS011;20785;50.020;19.916;2022-12-18T08:18:38;51.37;;;18.10;;
34302;SDS011;20785;50.020;19.916;2022-12-18T08:24:38;49.75;;;19.50;;
34302;SDS011;20785;50.020;19.916;2022-12-18T08:30:39;45.00;;;17.27;;
34302;SDS011;20785;50.020;19.916;2022-12-18T08:36:40;43.48;;;17.02;;
34302;SDS011;20785;50.020;19.916;2022-12-18T08:42:42;50.83;;;19.05;;
34302;SDS011;20785;50.020;19.916;2022-12-18T08:49:02;54.08;;;20.12;;
34302;SDS011;20785;50.020;19.916;2022-12-18T08:55:04;54.63;;;19.52;;
34302;SDS011;20785;50.020;19.916;2022-12-18T09:01:06;52.90;;;19.90;;
34302;SDS011;20785;50.020;19.916;2022-12-18T09:07:08;54.45;;;21.60;;
34302;SDS011;20785;50.020;19.916;2022-12-18T09:13:10;58.45;;;20.65;;
34302;SDS011;20785;50.020;19.916;2022-12-18T09:19:11;54.27;;;20.43;;
34302;SDS011;20785;50.020;19.916;2022-12-18T09:25:12;61.77;;;21.42;;
34302;SDS011;20785;50.020;19.916;2022-12-18T09:31:13;56.85;;;20.02;;
34302;SDS011;20785;50.020;19.916;2022-12-18T09:37:17;58.85;;;22.40;;
34302;SDS011;20785;50.020;19.916;2022-12-18T09:43:26;62.17;;;21.85;;
34302;SDS011;20785;50.020;19.916;2022-12-18T09:49:27;61.60;;;21.52;;
34302;SDS011;20785;50.020;19.916;2022-12-18T09:55:33;56.65;;;20.23;;
34302;SDS011;20785;50.020;19.916;2022-12-18T10:01:36;55.60;;;20.32;;
34302;SDS011;20785;50.020;19.916;2022-12-18T10:07:47;53.98;;;20.02;;
34302;SDS011;20785;50.020;19.916;2022-12-18T10:13:57;56.85;;;21.33;;
34302;SDS011;20785;50.020;19.916;2022-12-18T10:26:11;55.78;;;20.17;;
34302;SDS011;20785;50.020;19.916;2022-12-18T10:32:14;53.08;;;19.35;;
34302;SDS011;20785;50.020;19.916;2022-12-18T10:44:19;53.28;;;19.70;;
34302;SDS011;20785;50.020;19.916;2022-12-18T10:50:26;43.87;;;16.45;;
34302;SDS011;20785;50.020;19.916;2022-12-18T10:56:27;53.17;;;18.75;;
34302;SDS011;20785;50.020;19.916;2022-12-18T11:02:36;43.13;;;15.98;;
34302;SDS011;20785;50.020;19.916;2022-12-18T11:08:38;51.30;;;18.15;;
34302;SDS011;20785;50.020;19.916;2022-12-18T11:14:52;38.30;;;14.80;;
34302;SDS011;20785;50.020;19.916;2022-12-18T11:20:55;37.33;;;14.58;;
34302;SDS011;20785;50.020;19.916;2022-12-18T11:26:58;42.70;;;14.55;;
34302;SDS011;20785;50.020;19.916;2022-12-18T11:33:04;38.63;;;14.25;;
34302;SDS011;20785;50.020;19.916;2022-12-18T11:39:10;31.60;;;12.82;;
34302;SDS011;20785;50.020;19.916;2022-12-18T11:51:22;32.73;;;11.65;;
34302;SDS011;20785;50.020;19.916;2022-12-18T12:15:59;28.32;;;10.45;;
34302;SDS011;20785;50.020;19.916;2022-12-18T12:28:14;29.07;;;10.50;;
34302;SDS011;20785;50.020;19.916;2022-12-18T12:34:23;32.95;;;11.35;;
34302;SDS011;20785;50.020;19.916;2022-12-18T12:40:26;33.75;;;12.43;;
34302;SDS011;20785;50.020;19.916;2022-12-18T12:46:27;30.88;;;12.15;;
34302;SDS011;20785;50.020;19.916;2022-12-18T12:52:31;30.15;;;11.83;;
34302;SDS011;20785;50.020;19.916;2022-12-18T13:04:49;29.27;;;11.73;;
34302;SDS011;20785;50.020;19.916;2022-12-18T13:10:53;37.30;;;13.38;;
34302;SDS011;20785;50.020;19.916;2022-12-18T13:17:13;32.95;;;12.23;;
34302;SDS011;20785;50.020;19.916;2022-12-18T13:29:44;30.70;;;11.30;;
34302;SDS011;20785;50.020;19.916;2022-12-18T13:41:50;25.57;;;10.25;;
34302;SDS011;20785;50.020;19.916;2022-12-18T13:47:51;30.32;;;11.53;;
34302;SDS011;20785;50.020;19.916;2022-12-18T13:59:59;33.20;;;11.95;;
34302;SDS011;20785;50.020;19.916;2022-12-18T14:06:02;28.35;;;11.20;;
34302;SDS011;20785;50.020;19.916;2022-12-18T14:12:04;30.52;;;11.05;;
34302;SDS011;20785;50.020;19.916;2022-12-18T14:18:25;31.25;;;11.85;;
34302;SDS011;20785;50.020;19.916;2022-12-18T14:24:28;30.65;;;11.78;;
34302;SDS011;20785;50.020;19.916;2022-12-18T14:30:31;32.45;;;13.13;;
34302;SDS011;20785;50.020;19.916;2022-12-18T14:36:32;41.83;;;15.45;;
34302;SDS011;20785;50.020;19.916;2022-12-18T14:42:33;38.58;;;14.50;;
34302;SDS011;20785;50.020;19.916;2022-12-18T14:48:38;41.95;;;14.50;;
34302;SDS011;20785;50.020;19.916;2022-12-18T14:54:40;43.00;;;16.12;;
34302;SDS011;20785;50.020;19.916;2022-12-18T15:00:41;41.33;;;16.48;;
34302;SDS011;20785;50.020;19.916;2022-12-18T15:06:42;40.70;;;15.08;;
34302;SDS011;20785;50.020;19.916;2022-12-18T15:12:44;41.23;;;15.83;;
34302;SDS011;20785;50.020;19.916;2022-12-18T15:18:45;45.25;;;16.40;;
34302;SDS011;20785;50.020;19.916;2022-12-18T15:24:48;45.70;;;16.00;;
34302;SDS011;20785;50.020;19.916;2022-12-18T15:31:00;40.95;;;15.10;;
34302;SDS011;20785;50.020;19.916;2022-12-18T15:37:01;47.58;;;16.73;;
34302;SDS011;20785;50.020;19.916;2022-12-18T15:43:04;41.68;;;15.43;;
34302;SDS011;20785;50.020;19.916;2022-12-18T15:49:23;43.68;;;16.27;;
34302;SDS011;20785;50.020;19.916;2022-12-18T15:55:24;48.40;;;17.20;;
34302;SDS011;20785;50.020;19.916;2022-12-18T16:01:45;46.53;;;17.50;;
34302;SDS011;20785;50.020;19.916;2022-12-18T16:07:46;43.20;;;15.68;;
34302;SDS011;20785;50.020;19.916;2022-12-18T16:13:47;48.63;;;18.27;;
34302;SDS011;20785;50.020;19.916;2022-12-18T16:19:48;56.80;;;23.02;;
34302;SDS011;20785;50.020;19.916;2022-12-18T16:25:49;61.08;;;23.47;;
34302;SDS011;20785;50.020;19.916;2022-12-18T16:31:50;50.92;;;18.95;;
34302;SDS011;20785;50.020;19.916;2022-12-18T16:37:52;55.12;;;18.70;;
34302;SDS011;20785;50.020;19.916;2022-12-18T16:43:53;55.10;;;20.37;;
34302;SDS011;20785;50.020;19.916;2022-12-18T16:49:54;51.50;;;19.37;;
34302;SDS011;20785;50.020;19.916;2022-12-18T16:55:55;50.12;;;18.90;;
34302;SDS011;20785;50.020;19.916;2022-12-18T17:01:56;55.83;;;20.62;;
34302;SDS011;20785;50.020;19.916;2022-12-18T17:07:56;55.23;;;19.73;;
34302;SDS011;20785;50.020;19.916;2022-12-18T17:13:58;56.25;;;21.12;;
34302;SDS011;20785;50.020;19.916;2022-12-18T17:19:59;60.05;;;22.62;;
34302;SDS011;20785;50.020;19.916;2022-12-18T17:26:00;66.28;;;23.60;;
34302;SDS011;20785;50.020;19.916;2022-12-18T17:32:02;65.47;;;23.52;;
34302;SDS011;20785;50.020;19.916;2022-12-18T17:38:03;64.45;;;22.52;;
34302;SDS011;20785;50.020;19.916;2022-12-18T17:44:04;65.28;;;24.12;;
34302;SDS011;20785;50.020;19.916;2022-12-18T17:50:05;65.12;;;24.60;;
34302;SDS011;20785;50.020;19.916;2022-12-18T17:56:07;63.95;;;25.50;;
34302;SDS011;20785;50.020;19.916;2022-12-18T18:02:10;68.75;;;26.25;;
34302;SDS011;20785;50.020;19.916;2022-12-18T18:08:11;70.42;;;26.68;;
34302;SDS011;20785;50.020;19.916;2022-12-18T18:14:14;67.97;;;25.72;;
34302;SDS011;20785;50.020;19.916;2022-12-18T18:20:14;75.75;;;30.32;;
34302;SDS011;20785;50.020;19.916;2022-12-18T18:26:16;80.00;;;31.55;;
34302;SDS011;20785;50.020;19.916;2022-12-18T18:32:21;80.30;;;31.87;;
34302;SDS011;20785;50.020;19.916;2022-12-18T18:38:20;78.42;;;31.05;;
34302;SDS011;20785;50.020;19.916;2022-12-18T18:44:21;85.60;;;33.00;;
34302;SDS011;20785;50.020;19.916;2022-12-18T18:50:22;89.95;;;32.78;;
34302;SDS011;20785;50.020;19.916;2022-12-18T18:56:24;98.70;;;36.33;;
34302;SDS011;20785;50.020;19.916;2022-12-18T19:02:27;101.62;;;34.20;;
34302;SDS011;20785;50.020;19.916;2022-12-18T19:08:29;94.22;;;34.38;;
34302;SDS011;20785;50.020;19.916;2022-12-18T19:14:30;88.72;;;34.58;;
34302;SDS011;20785;50.020;19.916;2022-12-18T19:20:31;91.70;;;36.13;;
34302;SDS011;20785;50.020;19.916;2022-12-18T19:26:32;90.17;;;33.50;;
34302;SDS011;20785;50.020;19.916;2022-12-18T19:32:34;85.57;;;33.75;;
34302;SDS011;20785;50.020;19.916;2022-12-18T19:38:40;84.28;;;32.35;;
34302;SDS011;20785;50.020;19.916;2022-12-18T19:44:40;84.35;;;30.90;;
34302;SDS011;20785;50.020;19.916;2022-12-18T19:50:41;88.55;;;33.60;;
34302;SDS011;20785;50.020;19.916;2022-12-18T19:56:42;78.83;;;30.70;;
34302;SDS011;20785;50.020;19.916;2022-12-18T20:02:43;90.75;;;33.48;;
34302;SDS011;20785;50.020;19.916;2022-12-18T20:08:46;91.37;;;34.10;;
34302;SDS011;20785;50.020;19.916;2022-12-18T20:14:48;88.37;;;33.65;;
34302;SDS011;20785;50.020;19.916;2022-12-18T20:20:49;89.80;;;35.05;;
34302;SDS011;20785;50.020;19.916;2022-12-18T20:26:50;89.55;;;34.73;;
34302;SDS011;20785;50.020;19.916;2022-12-18T20:32:51;92.92;;;36.17;;
34302;SDS011;20785;50.020;19.916;2022-12-18T20:38:53;92.45;;;34.13;;
34302;SDS011;20785;50.020;19.916;2022-12-18T20:44:56;80.40;;;32.17;;
34302;SDS011;20785;50.020;19.916;2022-12-18T20:51:01;83.42;;;31.77;;
34302;SDS011;20785;50.020;19.916;2022-12-18T20:57:00;81.75;;;31.10;;
34302;SDS011;20785;50.020;19.916;2022-12-18T21:03:01;77.05;;;30.48;;
34302;SDS011;20785;50.020;19.916;2022-12-18T21:09:02;74.45;;;31.48;;
34302;SDS011;20785;50.020;19.916;2022-12-18T21:15:04;70.97;;;27.10;;
34302;SDS011;20785;50.020;19.916;2022-12-18T21:21:05;66.85;;;26.60;;
34302;SDS011;20785;50.020;19.916;2022-12-18T21:27:06;71.82;;;26.62;;
34302;SDS011;20785;50.020;19.916;2022-12-18T21:33:07;71.55;;;27.13;;
34302;SDS011;20785;50.020;19.916;2022-12-18T21:39:08;72.17;;;28.05;;
34302;SDS011;20785;50.020;19.916;2022-12-18T21:45:12;71.10;;;27.82;;
34302;SDS011;20785;50.020;19.916;2022-12-18T21:51:13;67.90;;;27.90;;
34302;SDS011;20785;50.020;19.916;2022-12-18T21:57:15;79.53;;;30.35;;
34302;SDS011;20785;50.020;19.916;2022-12-18T22:03:16;66.60;;;24.75;;
34302;SDS011;20785;50.020;19.916;2022-12-18T22:09:18;69.72;;;28.25;;
34302;SDS011;20785;50.020;19.916;2022-12-18T22:15:19;86.57;;;32.78;;
34302;SDS011;20785;50.020;19.916;2022-12-18T22:21:21;77.27;;;30.05;;
34302;SDS011;20785;50.020;19.916;2022-12-18T22:27:22;75.57;;;28.87;;
34302;SDS011;20785;50.020;19.916;2022-12-18T22:33:23;78.75;;;31.35;;
34302;SDS011;20785;50.020;19.916;2022-12-18T22:39:27;77.58;;;29.75;;
34302;SDS011;20785;50.020;19.916;2022-12-18T22:45:28;84.83;;;33.00;;
34302;SDS011;20785;50.020;19.916;2022-12-18T22:51:29;90.75;;;34.13;;
34302;SDS011;20785;50.020;19.916;2022-12-18T22:57:30;79.20;;;30.75;;
34302;SDS011;20785;50.020;19.916;2022-12-18T23:03:32;76.60;;;29.82;;
34302;SDS011;20785;50.020;19.916;2022-12-18T23:09:33;83.65;;;28.85;;
34302;SDS011;20785;50.020;19.916;2022-12-18T23:15:33;79.92;;;29.85;;
34302;SDS011;20785;50.020;19.916;2022-12-18T23:21:34;75.75;;;28.98;;
34302;SDS011;20785;50.020;19.916;2022-12-18T23:27:35;77.05;;;29.98;;
34302;SDS011;20785;50.020;19.916;2022-12-18T23:33:36;72.92;;;27.98;;
34302;SDS011;20785;50.020;19.916;2022-12-18T23:39:37;73.87;;;28.07;;
34302;SDS011;20785;50.020;19.916;2022-12-18T23:45:37;74.47;;;29.42;;
34302;SDS011;20785;50.020;19.916;2022-12-18T23:51:38;74.97;;;28.95;;
34302;SDS011;20785;50.020;19.916;2022-12-18T23:57:39;71.10;;;26.97;;
